Queensborough, Washington
Current Conditions -  °F | °C
As of 6:53 PM on Sunday 21 Dec 2014 (Local Time) from KPAE Reporting Station
Clear Clear  
Wind Chill: 50°   Ceiling: Unl
Heat Index: 50°   Visibility: 10mi
Dew Point: 45°   Wind: 8mph
Humidity: 83%   Direction: 160°SSE
Pressure: 30.05"   Gusts: NA
Location:  47.7933°N, 122.207°W
Report Text: KPAE 220253Z 16007KT 10SM CLR 10/07 A3005 RMK AO2 SLP179 T01000072 53013
Loading
Personal Weather Stations






























Interactive Weather Map New forecast layout! Learn more

10-Day Weather Forecast

Advertisements
Track Severe Weather on mobile